Time,TemperatureF,DewpointF,PressureIn,WindDirection,WindDirectionDegrees,WindSpeedMPH,WindSpeedGustMPH,Humidity,HourlyPrecipIn,Conditions,Clouds,dailyrainin,SolarRadiationWatts/m^2,SoftwareType,DateUTC
2013-01-20 00:00:00,43.7,40.7,30.21,South,187,0.0,0.0,89,0.00,,---,0.00,0.00,VWS V14.00,2013-01-20 06:00:00,
2013-01-20 00:03:00,43.8,40.8,30.21,South,187,0.0,0.0,89,0.00,,---,0.00,0.00,VWS V14.00,2013-01-20 06:03:00,
2013-01-20 00:07:00,43.8,41.1,30.21,South,187,0.0,0.0,90,0.00,,---,0.00,0.00,VWS V14.00,2013-01-20 06:07:00,
2013-01-20 00:11:00,44.1,41.7,30.21,South,187,0.0,0.0,91,0.00,,---,0.00,0.00,VWS V14.00,2013-01-20 06:11:00,
2013-01-20 00:15:00,44.2,42.0,30.21,South,187,0.0,0.0,92,0.00,,---,0.00,0.00,VWS V14.00,2013-01-20 06:15:00,
2013-01-20 00:19:00,44.0,41.5,30.21,South,187,0.0,0.0,91,0.00,,---,0.00,0.00,VWS V14.00,2013-01-20 06:19:00,
2013-01-20 00:23:00,43.9,41.7,30.21,South,187,0.0,0.0,92,0.00,,---,0.00,0.00,VWS V14.00,2013-01-20 06:23:00,
2013-01-20 00:27:00,44.0,41.8,30.21,South,187,0.0,0.0,92,0.00,,---,0.00,0.00,VWS V14.00,2013-01-20 06:27:00,
2013-01-20 00:30:00,43.8,41.6,30.20,South,187,0.0,0.0,92,0.00,,---,0.00,0.00,VWS V14.00,2013-01-20 06:30:00,
2013-01-20 00:31:00,43.7,41.5,30.20,South,187,0.0,0.0,92,0.00,,---,0.00,0.00,VWS V14.00,2013-01-20 06:31:00,
2013-01-20 00:35:00,43.7,41.8,30.20,South,187,0.0,0.0,93,0.00,,---,0.00,0.00,VWS V14.00,2013-01-20 06:35:00,
2013-01-20 00:39:00,43.8,41.9,30.20,South,187,0.0,0.0,93,0.00,,---,0.00,0.00,VWS V14.00,2013-01-20 06:39:00,
2013-01-20 00:43:00,43.4,41.2,30.20,South,187,0.0,0.0,92,0.00,,---,0.00,0.00,VWS V14.00,2013-01-20 06:43:00,
2013-01-20 00:47:00,43.0,40.8,30.20,South,187,0.0,0.0,92,0.00,,---,0.00,0.00,VWS V14.00,2013-01-20 06:47:00,
2013-01-20 00:51:00,42.9,41.0,30.20,South,187,0.0,0.0,93,0.00,,---,0.00,0.00,VWS V14.00,2013-01-20 06:51:00,
2013-01-20 00:55:00,42.3,40.4,30.20,South,187,0.0,0.0,93,0.00,,---,0.00,0.00,VWS V14.00,2013-01-20 06:55:00,
2013-01-20 00:59:00,41.7,39.8,30.21,South,187,0.0,0.0,93,0.00,,---,0.00,0.00,VWS V14.00,2013-01-20 06:59:00,
2013-01-20 01:00:00,41.7,39.8,30.21,South,187,0.0,0.0,93,0.00,,---,0.00,0.00,VWS V14.00,2013-01-20 07:00:00,
2013-01-20 01:04:00,41.7,39.8,30.21,South,187,0.0,0.0,93,0.00,,---,0.00,0.00,VWS V14.00,2013-01-20 07:04:00,
2013-01-20 01:08:00,41.5,39.6,30.21,South,187,0.0,0.0,93,0.00,,---,0.00,0.00,VWS V14.00,2013-01-20 07:08:00,
2013-01-20 01:12:00,41.6,40.0,30.21,South,187,0.0,0.0,94,0.00,,---,0.00,0.00,VWS V14.00,2013-01-20 07:12:00,
2013-01-20 01:16:00,41.5,39.9,30.21,South,187,0.0,0.0,94,0.00,,---,0.00,0.00,VWS V14.00,2013-01-20 07:16:00,
2013-01-20 01:20:00,41.4,39.8,30.21,South,187,0.0,0.0,94,0.00,,---,0.00,0.00,VWS V14.00,2013-01-20 07:20:00,
2013-01-20 01:24:00,41.1,39.5,30.21,South,187,0.0,0.0,94,0.00,,---,0.00,0.00,VWS V14.00,2013-01-20 07:24:00,
2013-01-20 01:28:00,40.9,39.3,30.21,South,187,0.0,0.0,94,0.00,,---,0.00,0.00,VWS V14.00,2013-01-20 07:28:00,
2013-01-20 01:30:00,40.9,39.3,30.21,South,187,0.0,0.0,94,0.00,,---,0.00,0.00,VWS V14.00,2013-01-20 07:30:00,
2013-01-20 01:32:00,40.8,39.2,30.21,South,187,0.0,0.0,94,0.00,,---,0.00,0.00,VWS V14.00,2013-01-20 07:32:00,
2013-01-20 01:36:00,40.6,39.0,30.21,South,187,0.0,0.0,94,0.00,,---,0.00,0.00,VWS V14.00,2013-01-20 07:36:00,
2013-01-20 01:40:00,40.5,38.9,30.21,South,187,0.0,0.0,94,0.00,,---,0.00,0.00,VWS V14.00,2013-01-20 07:40:00,
2013-01-20 01:44:00,40.5,38.9,30.21,South,187,0.0,0.0,94,0.00,,---,0.00,0.00,VWS V14.00,2013-01-20 07:44:00,
2013-01-20 01:48:00,40.5,38.9,30.20,South,187,0.0,0.0,94,0.00,,---,0.00,0.00,VWS V14.00,2013-01-20 07:48:00,
2013-01-20 01:52:00,40.3,38.7,30.20,South,187,0.0,0.0,94,0.00,,---,0.00,0.00,VWS V14.00,2013-01-20 07:52:00,
2013-01-20 01:56:00,40.0,38.4,30.20,South,187,0.0,0.0,94,0.00,,---,0.00,0.00,VWS V14.00,2013-01-20 07:56:00,
2013-01-20 02:00:00,39.9,38.3,30.20,South,187,0.0,0.0,94,0.00,,---,0.00,0.00,VWS V14.00,2013-01-20 08:00:00,
2013-01-20 02:04:00,39.8,38.2,30.20,South,187,0.0,0.0,94,0.00,,---,0.00,0.00,VWS V14.00,2013-01-20 08:04:00,
2013-01-20 02:08:00,39.7,38.1,30.20,South,187,0.0,0.0,94,0.00,,---,0.00,0.00,VWS V14.00,2013-01-20 08:08:00,
2013-01-20 02:12:00,39.7,38.1,30.20,South,187,0.0,0.0,94,0.00,,---,0.00,0.00,VWS V14.00,2013-01-20 08:12:00,
2013-01-20 02:16:00,39.8,38.2,30.20,South,187,0.0,0.0,94,0.00,,---,0.00,0.00,VWS V14.00,2013-01-20 08:16:00,
2013-01-20 02:20:00,40.0,38.4,30.20,South,187,0.0,0.0,94,0.00,,---,0.00,0.00,VWS V14.00,2013-01-20 08:20:00,
2013-01-20 02:24:00,39.9,38.3,30.20,South,187,0.0,0.0,94,0.00,,---,0.00,0.00,VWS V14.00,2013-01-20 08:24:00,
2013-01-20 02:28:00,39.8,38.2,30.20,South,187,0.0,0.0,94,0.00,,---,0.00,0.00,VWS V14.00,2013-01-20 08:28:00,
2013-01-20 02:30:00,39.7,38.1,30.20,South,187,0.0,0.0,94,0.00,,---,0.00,0.00,VWS V14.00,2013-01-20 08:30:00,
2013-01-20 02:32:00,39.5,37.9,30.20,South,187,0.0,0.0,94,0.00,,---,0.00,0.00,VWS V14.00,2013-01-20 08:32:00,
2013-01-20 02:36:00,39.5,37.9,30.20,South,187,0.0,0.0,94,0.00,,---,0.00,0.00,VWS V14.00,2013-01-20 08:36:00,
2013-01-20 02:40:00,39.5,38.2,30.20,South,187,0.0,0.0,95,0.00,,---,0.00,0.00,VWS V14.00,2013-01-20 08:40:00,
2013-01-20 02:44:00,39.6,38.3,30.19,South,187,0.0,0.0,95,0.00,,---,0.00,0.00,VWS V14.00,2013-01-20 08:44:00,
2013-01-20 02:48:00,39.6,38.3,30.19,South,187,0.0,0.0,95,0.00,,---,0.00,0.00,VWS V14.00,2013-01-20 08:48:00,
2013-01-20 02:52:00,39.7,38.4,30.19,South,187,0.0,0.0,95,0.00,,---,0.00,0.00,VWS V14.00,2013-01-20 08:52:00,
2013-01-20 02:56:00,39.7,38.4,30.19,South,187,0.0,0.0,95,0.00,,---,0.00,0.00,VWS V14.00,2013-01-20 08:56:00,
2013-01-20 03:00:00,39.7,38.4,30.19,South,187,0.0,0.0,95,0.00,,---,0.00,0.00,VWS V14.00,2013-01-20 09:00:00,
2013-01-20 03:04:00,39.6,38.3,30.19,South,187,0.0,0.0,95,0.00,,---,0.00,0.00,VWS V14.00,2013-01-20 09:04:00,
2013-01-20 03:08:00,39.5,38.2,30.19,South,187,0.0,0.0,95,0.00,,---,0.00,0.00,VWS V14.00,2013-01-20 09:08:00,
2013-01-20 03:12:00,39.3,38.0,30.19,South,187,0.0,0.0,95,0.00,,---,0.00,0.00,VWS V14.00,2013-01-20 09:12:00,
2013-01-20 03:16:00,39.2,37.9,30.19,South,187,0.0,0.0,95,0.00,,---,0.00,0.00,VWS V14.00,2013-01-20 09:16:00,
2013-01-20 03:20:00,39.2,37.9,30.19,South,187,0.0,0.0,95,0.00,,---,0.00,0.00,VWS V14.00,2013-01-20 09:20:00,
2013-01-20 03:24:00,39.1,37.8,30.19,South,187,0.0,0.0,95,0.00,,---,0.00,0.00,VWS V14.00,2013-01-20 09:24:00,
2013-01-20 03:29:00,38.9,37.6,30.19,South,187,0.0,0.0,95,0.00,,---,0.00,0.00,VWS V14.00,2013-01-20 09:29:00,
2013-01-20 03:30:00,38.8,37.5,30.19,South,187,0.0,0.0,95,0.00,,---,0.00,0.00,VWS V14.00,2013-01-20 09:30:00,
2013-01-20 03:33:00,38.7,37.4,30.19,South,187,0.0,0.0,95,0.00,,---,0.00,0.00,VWS V14.00,2013-01-20 09:33:00,
2013-01-20 03:37:00,38.6,37.3,30.19,South,187,0.0,0.0,95,0.00,,---,0.00,0.00,VWS V14.00,2013-01-20 09:37:00,
2013-01-20 03:41:00,38.4,37.1,30.19,South,187,0.0,0.0,95,0.00,,---,0.00,0.00,VWS V14.00,2013-01-20 09:41:00,
2013-01-20 03:45:00,38.1,36.5,30.19,South,187,0.0,0.0,94,0.00,,---,0.00,0.00,VWS V14.00,2013-01-20 09:45:00,
2013-01-20 03:49:00,38.2,36.9,30.19,South,187,0.0,0.0,95,0.00,,---,0.00,0.00,VWS V14.00,2013-01-20 09:49:00,
2013-01-20 03:53:00,38.4,37.1,30.19,South,187,0.0,0.0,95,0.00,,---,0.00,0.00,VWS V14.00,2013-01-20 09:53:00,
2013-01-20 03:57:00,38.2,36.9,30.19,South,187,0.0,0.0,95,0.00,,---,0.00,0.00,VWS V14.00,2013-01-20 09:57:00,
2013-01-20 04:00:00,38.4,37.1,30.19,South,187,0.0,0.0,95,0.00,,---,0.00,0.00,VWS V14.00,2013-01-20 10:00:00,
2013-01-20 04:01:00,38.5,37.2,30.19,South,187,0.0,0.0,95,0.00,,---,0.00,0.00,VWS V14.00,2013-01-20 10:01:00,
2013-01-20 04:05:00,38.8,37.5,30.19,South,187,0.0,0.0,95,0.00,,---,0.00,0.00,VWS V14.00,2013-01-20 10:05:00,
2013-01-20 04:09:00,38.8,37.5,30.19,South,187,0.0,0.0,95,0.00,,---,0.00,0.00,VWS V14.00,2013-01-20 10:09:00,
2013-01-20 04:13:00,39.0,37.7,30.19,South,187,0.0,0.0,95,0.00,,---,0.00,0.00,VWS V14.00,2013-01-20 10:13:00,
2013-01-20 04:17:00,39.3,38.0,30.19,South,187,0.0,0.0,95,0.00,,---,0.00,0.00,VWS V14.00,2013-01-20 10:17:00,
2013-01-20 04:21:00,39.6,38.3,30.19,South,187,0.0,0.0,95,0.00,,---,0.00,0.00,VWS V14.00,2013-01-20 10:21:00,
2013-01-20 04:25:00,39.2,37.9,30.19,South,187,0.0,0.0,95,0.00,,---,0.00,0.00,VWS V14.00,2013-01-20 10:25:00,
2013-01-20 04:29:00,39.4,38.1,30.18,South,187,0.0,0.0,95,0.00,,---,0.00,0.00,VWS V14.00,2013-01-20 10:29:00,
2013-01-20 04:30:00,39.4,38.1,30.18,South,187,0.0,0.0,95,0.00,,---,0.00,0.00,VWS V14.00,2013-01-20 10:30:00,
2013-01-20 04:33:00,39.0,37.7,30.18,South,187,0.0,0.0,95,0.00,,---,0.00,0.00,VWS V14.00,2013-01-20 10:33:00,
2013-01-20 04:37:00,38.7,37.4,30.18,South,187,0.0,0.0,95,0.00,,---,0.00,0.00,VWS V14.00,2013-01-20 10:37:00,
2013-01-20 04:41:00,38.6,37.3,30.18,South,187,0.0,0.0,95,0.00,,---,0.00,0.00,VWS V14.00,2013-01-20 10:41:00,
2013-01-20 04:45:00,38.7,37.4,30.18,South,187,0.0,0.0,95,0.00,,---,0.00,0.00,VWS V14.00,2013-01-20 10:45:00,
2013-01-20 04:49:00,38.5,37.2,30.18,South,187,0.0,0.0,95,0.00,,---,0.00,0.00,VWS V14.00,2013-01-20 10:49:00,
2013-01-20 04:53:00,38.2,36.9,30.18,South,187,0.0,0.0,95,0.00,,---,0.00,0.00,VWS V14.00,2013-01-20 10:53:00,
2013-01-20 04:57:00,38.1,36.8,30.18,South,187,0.0,0.0,95,0.00,,---,0.00,0.00,VWS V14.00,2013-01-20 10:57:00,
2013-01-20 05:00:00,38.1,36.8,30.19,South,187,0.0,0.0,95,0.00,,---,0.00,0.00,VWS V14.00,2013-01-20 11:00:00,
2013-01-20 05:01:00,38.1,36.8,30.19,South,187,0.0,0.0,95,0.00,,---,0.00,0.00,VWS V14.00,2013-01-20 11:01:00,
2013-01-20 05:05:00,38.2,36.9,30.19,South,187,0.0,0.0,95,0.00,,---,0.00,0.00,VWS V14.00,2013-01-20 11:05:00,
2013-01-20 05:09:00,38.2,36.9,30.19,South,187,0.0,0.0,95,0.00,,---,0.00,0.00,VWS V14.00,2013-01-20 11:09:00,
2013-01-20 05:13:00,38.1,36.8,30.19,South,187,0.0,0.0,95,0.00,,---,0.00,0.00,VWS V14.00,2013-01-20 11:13:00,
2013-01-20 05:17:00,38.1,36.8,30.19,South,187,0.0,0.0,95,0.00,,---,0.00,0.00,VWS V14.00,2013-01-20 11:17:00,
2013-01-20 05:21:00,38.1,36.8,30.19,South,187,0.0,0.0,95,0.00,,---,0.00,0.00,VWS V14.00,2013-01-20 11:21:00,
2013-01-20 05:25:00,38.4,37.1,30.19,South,187,0.0,0.0,95,0.00,,---,0.00,0.00,VWS V14.00,2013-01-20 11:25:00,
2013-01-20 05:29:00,38.3,37.0,30.19,South,187,0.0,0.0,95,0.00,,---,0.00,0.00,VWS V14.00,2013-01-20 11:29:00,
2013-01-20 05:30:00,38.2,36.9,30.19,South,187,0.0,0.0,95,0.00,,---,0.00,0.00,VWS V14.00,2013-01-20 11:30:00,
2013-01-20 05:33:00,38.0,36.7,30.19,South,187,0.0,0.0,95,0.00,,---,0.00,0.00,VWS V14.00,2013-01-20 11:33:00,
2013-01-20 05:38:00,38.0,36.7,30.19,South,187,0.0,0.0,95,0.00,,---,0.00,0.00,VWS V14.00,2013-01-20 11:38:00,
2013-01-20 05:42:00,38.0,36.7,30.19,South,187,0.0,0.0,95,0.00,,---,0.00,0.00,VWS V14.00,2013-01-20 11:42:00,
2013-01-20 05:46:00,38.2,36.9,30.18,South,187,0.0,0.0,95,0.00,,---,0.00,0.00,VWS V14.00,2013-01-20 11:46:00,
2013-01-20 05:50:00,38.3,37.0,30.18,South,187,0.0,0.0,95,0.00,,---,0.00,0.00,VWS V14.00,2013-01-20 11:50:00,
2013-01-20 05:54:00,38.5,37.2,30.18,South,187,0.0,0.0,95,0.00,,---,0.00,0.00,VWS V14.00,2013-01-20 11:54:00,
2013-01-20 05:58:00,38.2,36.9,30.18,South,187,0.0,0.0,95,0.00,,---,0.00,0.00,VWS V14.00,2013-01-20 11:58:00,
2013-01-20 06:00:00,38.1,36.8,30.18,South,187,0.0,0.0,95,0.00,,---,0.00,0.00,VWS V14.00,2013-01-20 12:00:00,
2013-01-20 06:02:00,38.0,36.7,30.18,South,187,0.0,0.0,95,0.00,,---,0.00,0.00,VWS V14.00,2013-01-20 12:02:00,
2013-01-20 06:06:00,37.7,36.4,30.18,South,187,0.0,0.0,95,0.00,,---,0.00,0.00,VWS V14.00,2013-01-20 12:06:00,
2013-01-20 06:10:00,37.4,36.1,30.18,South,187,0.0,0.0,95,0.00,,---,0.00,0.00,VWS V14.00,2013-01-20 12:10:00,
2013-01-20 06:14:00,37.1,35.8,30.18,South,187,0.0,0.0,95,0.00,,---,0.00,0.00,VWS V14.00,2013-01-20 12:14:00,
2013-01-20 06:18:00,37.3,36.0,30.20,South,187,0.0,0.0,95,0.00,,---,0.00,0.00,VWS V14.00,2013-01-20 12:18:00,
2013-01-20 06:22:00,37.5,36.2,30.20,South,187,0.0,0.0,95,0.00,,---,0.00,0.00,VWS V14.00,2013-01-20 12:22:00,
2013-01-20 06:26:00,37.4,36.1,30.20,South,187,0.0,0.0,95,0.00,,---,0.00,0.00,VWS V14.00,2013-01-20 12:26:00,
2013-01-20 06:30:00,37.1,35.8,30.20,South,187,0.0,0.0,95,0.00,,---,0.00,0.00,VWS V14.00,2013-01-20 12:30:00,
2013-01-20 06:34:00,37.2,35.9,30.20,South,187,0.0,0.0,95,0.00,,---,0.00,0.00,VWS V14.00,2013-01-20 12:34:00,
2013-01-20 06:38:00,37.1,35.8,30.20,South,187,0.0,0.0,95,0.00,,---,0.00,0.00,VWS V14.00,2013-01-20 12:38:00,
2013-01-20 06:42:00,36.9,35.6,30.20,South,187,0.0,0.0,95,0.00,,---,0.00,0.00,VWS V14.00,2013-01-20 12:42:00,
2013-01-20 06:46:00,36.8,35.5,30.20,South,187,0.0,0.0,95,0.00,,---,0.00,0.00,VWS V14.00,2013-01-20 12:46:00,
2013-01-20 06:50:00,36.9,35.6,30.20,South,187,0.0,0.0,95,0.00,,---,0.00,0.00,VWS V14.00,2013-01-20 12:50:00,
2013-01-20 06:54:00,37.0,35.7,30.20,South,187,0.0,0.0,95,0.00,,---,0.00,0.00,VWS V14.00,2013-01-20 12:54:00,
2013-01-20 06:58:00,37.3,36.0,30.20,South,187,0.0,0.0,95,0.00,,---,0.00,0.00,VWS V14.00,2013-01-20 12:58:00,
2013-01-20 07:00:00,37.5,36.2,30.20,South,187,0.0,0.0,95,0.00,,---,0.00,0.00,VWS V14.00,2013-01-20 13:00:00,
2013-01-20 07:02:00,37.6,36.6,30.20,South,187,0.0,0.0,96,0.00,,---,0.00,0.00,VWS V14.00,2013-01-20 13:02:00,
2013-01-20 07:06:00,37.7,36.7,30.20,South,187,0.0,0.0,96,0.00,,---,0.00,5.00,VWS V14.00,2013-01-20 13:06:00,
2013-01-20 07:10:00,37.8,36.8,30.20,South,187,0.0,0.0,96,0.00,,---,0.00,7.00,VWS V14.00,2013-01-20 13:10:00,
2013-01-20 07:14:00,37.8,36.5,30.21,South,187,0.0,0.0,95,0.00,,---,0.00,14.00,VWS V14.00,2013-01-20 13:14:00,
2013-01-20 07:18:00,37.8,36.5,30.21,South,187,0.0,0.0,95,0.00,,---,0.00,18.00,VWS V14.00,2013-01-20 13:18:00,
2013-01-20 07:22:00,37.9,36.6,30.21,South,187,0.0,0.0,95,0.00,,---,0.00,23.00,VWS V14.00,2013-01-20 13:22:00,
2013-01-20 07:26:00,38.0,36.7,30.21,South,187,0.0,0.0,95,0.00,,---,0.00,21.00,VWS V14.00,2013-01-20 13:26:00,
2013-01-20 07:30:00,38.0,36.7,30.20,South,187,0.0,0.0,95,0.00,,---,0.00,19.00,VWS V14.00,2013-01-20 13:30:00,
2013-01-20 07:34:00,37.5,36.5,30.20,South,187,0.0,0.0,96,0.00,,---,0.00,49.00,VWS V14.00,2013-01-20 13:34:00,
2013-01-20 07:38:00,37.9,36.6,30.20,South,187,0.0,0.0,95,0.00,,---,0.00,54.00,VWS V14.00,2013-01-20 13:38:00,
2013-01-20 07:43:00,38.0,36.7,30.20,South,187,0.0,0.0,95,0.00,,---,0.00,56.00,VWS V14.00,2013-01-20 13:43:00,
2013-01-20 07:47:00,38.2,37.2,30.20,South,187,0.0,0.0,96,0.00,,---,0.00,77.00,VWS V14.00,2013-01-20 13:47:00,
2013-01-20 07:51:00,38.9,37.9,30.20,South,187,0.0,0.0,96,0.00,,---,0.00,98.00,VWS V14.00,2013-01-20 13:51:00,
2013-01-20 07:55:00,39.7,38.7,30.20,South,187,0.0,0.0,96,0.00,,---,0.00,111.00,VWS V14.00,2013-01-20 13:55:00,
2013-01-20 07:59:00,40.3,39.2,30.20,South,187,0.0,0.0,96,0.00,,---,0.00,121.00,VWS V14.00,2013-01-20 13:59:00,
2013-01-20 08:00:00,40.8,39.8,30.20,South,187,0.0,0.0,96,0.00,,---,0.00,127.00,VWS V14.00,2013-01-20 14:00:00,
2013-01-20 08:03:00,40.9,39.8,30.20,South,187,0.0,0.0,96,0.00,,---,0.00,130.00,VWS V14.00,2013-01-20 14:03:00,
2013-01-20 08:07:00,42.3,41.2,30.20,South,187,0.0,0.0,96,0.00,,---,0.00,142.00,VWS V14.00,2013-01-20 14:07:00,
2013-01-20 08:11:00,42.8,41.7,30.20,South,187,0.0,0.0,96,0.00,,---,0.00,155.00,VWS V14.00,2013-01-20 14:11:00,
2013-01-20 08:15:00,43.3,42.2,30.21,South,187,0.0,0.0,96,0.00,,---,0.00,165.00,VWS V14.00,2013-01-20 14:15:00,
2013-01-20 08:19:00,43.5,42.4,30.21,South,187,0.0,0.0,96,0.00,,---,0.00,176.00,VWS V14.00,2013-01-20 14:19:00,
2013-01-20 08:23:00,43.7,42.4,30.21,South,187,0.0,0.0,95,0.00,,---,0.00,188.00,VWS V14.00,2013-01-20 14:23:00,
2013-01-20 08:27:00,44.3,42.4,30.21,South,187,0.0,0.0,93,0.00,,---,0.00,200.00,VWS V14.00,2013-01-20 14:27:00,
2013-01-20 08:30:00,44.8,42.6,30.20,South,187,0.0,0.0,92,0.00,,---,0.00,209.00,VWS V14.00,2013-01-20 14:30:00,
2013-01-20 08:31:00,44.9,42.7,30.20,South,187,0.0,0.0,92,0.00,,---,0.00,211.00,VWS V14.00,2013-01-20 14:31:00,
2013-01-20 08:35:00,44.9,42.7,30.20,South,187,0.0,0.0,92,0.00,,---,0.00,223.00,VWS V14.00,2013-01-20 14:35:00,
2013-01-20 08:39:00,45.3,43.1,30.20,South,187,0.0,0.0,92,0.00,,---,0.00,234.00,VWS V14.00,2013-01-20 14:39:00,
2013-01-20 08:43:00,45.2,43.0,30.20,South,187,0.0,0.0,92,0.00,,---,0.00,244.00,VWS V14.00,2013-01-20 14:43:00,
2013-01-20 08:47:00,45.6,43.1,30.21,South,187,0.0,0.0,91,0.00,,---,0.00,255.00,VWS V14.00,2013-01-20 14:47:00,
2013-01-20 08:51:00,45.8,43.3,30.21,South,187,0.0,0.0,91,0.00,,---,0.00,264.00,VWS V14.00,2013-01-20 14:51:00,
2013-01-20 08:55:00,45.7,43.2,30.21,South,187,0.0,1.0,91,0.00,,---,0.00,279.00,VWS V14.00,2013-01-20 14:55:00,
2013-01-20 08:59:00,46.3,43.8,30.21,South,187,0.0,1.0,91,0.00,,---,0.00,292.00,VWS V14.00,2013-01-20 14:59:00,
2013-01-20 09:00:00,46.3,43.8,30.21,South,187,0.0,1.0,91,0.00,,---,0.00,294.00,VWS V14.00,2013-01-20 15:00:00,
2013-01-20 09:03:00,46.6,44.1,30.21,South,187,0.0,0.0,91,0.00,,---,0.00,301.00,VWS V14.00,2013-01-20 15:03:00,
2013-01-20 09:07:00,47.0,44.2,30.21,South,187,0.0,0.0,90,0.00,,---,0.00,313.00,VWS V14.00,2013-01-20 15:07:00,
2013-01-20 09:11:00,47.5,44.4,30.21,South,187,0.0,0.0,89,0.00,,---,0.00,325.00,VWS V14.00,2013-01-20 15:11:00,
2013-01-20 09:15:00,47.7,44.3,30.21,South,187,0.0,0.0,88,0.00,,---,0.00,334.00,VWS V14.00,2013-01-20 15:15:00,
2013-01-20 09:19:00,48.2,44.8,30.21,South,187,0.0,0.0,88,0.00,,---,0.00,345.00,VWS V14.00,2013-01-20 15:19:00,
2013-01-20 09:23:00,48.3,44.6,30.21,South,187,0.0,0.0,87,0.00,,---,0.00,359.00,VWS V14.00,2013-01-20 15:23:00,
2013-01-20 09:27:00,48.8,45.1,30.21,South,187,0.0,0.0,87,0.00,,---,0.00,373.00,VWS V14.00,2013-01-20 15:27:00,
2013-01-20 09:30:00,49.2,45.5,30.22,South,187,0.0,0.0,87,0.00,,---,0.00,381.00,VWS V14.00,2013-01-20 15:30:00,
2013-01-20 09:31:00,49.4,45.7,30.22,SE,132,0.0,0.0,87,0.00,,---,0.00,381.00,VWS V14.00,2013-01-20 15:31:00,
2013-01-20 09:35:00,50.3,46.6,30.22,SE,132,0.0,0.0,87,0.00,,---,0.00,397.00,VWS V14.00,2013-01-20 15:35:00,
2013-01-20 09:39:00,51.0,46.7,30.22,SE,132,0.0,0.0,85,0.00,,---,0.00,406.00,VWS V14.00,2013-01-20 15:39:00,
2013-01-20 09:44:00,52.2,48.2,30.22,SE,132,0.0,0.0,86,0.00,,---,0.00,418.00,VWS V14.00,2013-01-20 15:44:00,
2013-01-20 09:48:00,53.1,48.7,30.22,SE,132,0.0,0.0,85,0.00,,---,0.00,425.00,VWS V14.00,2013-01-20 15:48:00,
2013-01-20 09:52:00,54.0,49.6,30.22,SE,135,1.0,1.0,85,0.00,,---,0.00,432.00,VWS V14.00,2013-01-20 15:52:00,
2013-01-20 09:56:00,54.2,49.5,30.22,ESE,118,0.0,2.0,84,0.00,,---,0.00,441.00,VWS V14.00,2013-01-20 15:56:00,
2013-01-20 10:00:00,55.1,50.0,30.22,SSE,167,3.0,4.0,83,0.00,,---,0.00,452.00,VWS V14.00,2013-01-20 16:00:00,
2013-01-20 10:04:00,55.9,50.2,30.22,SSE,163,3.0,4.0,81,0.00,,---,0.00,461.00,VWS V14.00,2013-01-20 16:04:00,
2013-01-20 10:08:00,56.4,51.0,30.22,South,173,4.0,5.0,82,0.00,,---,0.00,469.00,VWS V14.00,2013-01-20 16:08:00,
2013-01-20 10:12:00,56.9,51.1,30.22,South,174,1.0,5.0,81,0.00,,---,0.00,478.00,VWS V14.00,2013-01-20 16:12:00,
2013-01-20 10:16:00,57.4,51.3,30.22,SSW,199,2.0,5.0,80,0.00,,---,0.00,485.00,VWS V14.00,2013-01-20 16:16:00,
2013-01-20 10:20:00,57.6,50.5,30.22,SSW,194,3.0,5.0,77,0.00,,---,0.00,496.00,VWS V14.00,2013-01-20 16:20:00,
2013-01-20 10:24:00,57.5,50.4,30.22,South,179,2.0,5.0,77,0.00,,---,0.00,503.00,VWS V14.00,2013-01-20 16:24:00,
2013-01-20 10:28:00,58.2,51.0,30.22,South,187,2.0,5.0,77,0.00,,---,0.00,510.00,VWS V14.00,2013-01-20 16:28:00,
2013-01-20 10:30:00,58.2,50.3,30.21,South,187,2.0,5.0,75,0.00,,---,0.00,515.00,VWS V14.00,2013-01-20 16:30:00,
2013-01-20 10:32:00,58.0,50.1,30.21,South,173,3.0,3.0,75,0.00,,---,0.00,517.00,VWS V14.00,2013-01-20 16:32:00,
2013-01-20 10:36:00,58.1,50.6,30.21,South,173,2.0,4.0,76,0.00,,---,0.00,522.00,VWS V14.00,2013-01-20 16:36:00,
2013-01-20 10:40:00,58.4,50.2,30.21,South,173,2.0,4.0,74,0.00,,---,0.00,529.00,VWS V14.00,2013-01-20 16:40:00,
2013-01-20 10:44:00,59.0,50.4,30.21,South,173,1.0,4.0,73,0.00,,---,0.00,536.00,VWS V14.00,2013-01-20 16:44:00,
2013-01-20 10:48:00,59.9,50.1,30.21,South,173,0.0,4.0,70,0.00,,---,0.00,541.00,VWS V14.00,2013-01-20 16:48:00,
2013-01-20 10:52:00,59.9,50.1,30.21,South,173,0.0,4.0,70,0.00,,---,0.00,547.00,VWS V14.00,2013-01-20 16:52:00,
2013-01-20 10:56:00,60.2,51.2,30.21,South,173,0.0,4.0,72,0.00,,---,0.00,554.00,VWS V14.00,2013-01-20 16:56:00,
2013-01-20 11:00:00,59.8,50.8,30.21,East,88,3.0,4.0,72,0.00,,---,0.00,557.00,VWS V14.00,2013-01-20 17:00:00,
2013-01-20 11:04:00,59.3,49.9,30.21,ENE,71,2.0,4.0,71,0.00,,---,0.00,563.00,VWS V14.00,2013-01-20 17:04:00,
2013-01-20 11:08:00,60.1,51.4,30.21,ENE,71,3.0,4.0,73,0.00,,---,0.00,566.00,VWS V14.00,2013-01-20 17:08:00,
2013-01-20 11:12:00,60.3,50.9,30.21,ENE,70,1.0,4.0,71,0.00,,---,0.00,570.00,VWS V14.00,2013-01-20 17:12:00,
2013-01-20 11:16:00,60.1,51.1,30.20,ENE,70,2.0,4.0,72,0.00,,---,0.00,575.00,VWS V14.00,2013-01-20 17:16:00,
2013-01-20 11:20:00,60.1,50.7,30.20,ENE,70,2.0,4.0,71,0.00,,---,0.00,577.00,VWS V14.00,2013-01-20 17:20:00,
2013-01-20 11:24:00,60.3,50.9,30.20,ENE,69,2.0,4.0,71,0.00,,---,0.00,582.00,VWS V14.00,2013-01-20 17:24:00,
2013-01-20 11:28:00,60.5,51.1,30.20,ENE,68,3.0,4.0,71,0.00,,---,0.00,585.00,VWS V14.00,2013-01-20 17:28:00,
2013-01-20 11:30:00,60.4,50.6,30.19,ENE,68,1.0,4.0,70,0.00,,---,0.00,587.00,VWS V14.00,2013-01-20 17:30:00,
2013-01-20 11:32:00,60.7,50.9,30.19,ENE,68,2.0,2.0,70,0.00,,---,0.00,587.00,VWS V14.00,2013-01-20 17:32:00,
2013-01-20 11:36:00,61.2,50.6,30.19,ENE,68,2.0,3.0,68,0.00,,---,0.00,592.00,VWS V14.00,2013-01-20 17:36:00,
2013-01-20 11:40:00,61.5,50.8,30.19,ENE,68,2.0,3.0,68,0.00,,---,0.00,592.00,VWS V14.00,2013-01-20 17:40:00,
2013-01-20 11:44:00,61.7,50.2,30.18,ENE,68,1.0,3.0,66,0.00,,---,0.00,596.00,VWS V14.00,2013-01-20 17:44:00,
2013-01-20 11:48:00,62.1,51.0,30.18,ENE,68,1.0,3.0,67,0.00,,---,0.00,599.00,VWS V14.00,2013-01-20 17:48:00,
2013-01-20 11:52:00,62.6,50.7,30.18,ENE,68,0.0,3.0,65,0.00,,---,0.00,598.00,VWS V14.00,2013-01-20 17:52:00,
2013-01-20 11:56:00,63.1,50.7,30.18,ENE,69,3.0,3.0,64,0.00,,---,0.00,601.00,VWS V14.00,2013-01-20 17:56:00,
2013-01-20 12:00:00,62.9,50.5,30.17,SE,130,2.0,3.0,64,0.00,,---,0.00,601.00,VWS V14.00,2013-01-20 18:00:00,
2013-01-20 12:04:00,63.7,50.5,30.17,SE,130,2.0,3.0,62,0.00,,---,0.00,603.00,VWS V14.00,2013-01-20 18:04:00,
2013-01-20 12:09:00,63.5,49.8,30.17,East,96,1.0,4.0,61,0.00,,---,0.00,603.00,VWS V14.00,2013-01-20 18:09:00,
2013-01-20 12:13:00,64.2,49.6,30.17,SSE,165,4.0,5.0,59,0.00,,---,0.00,603.00,VWS V14.00,2013-01-20 18:13:00,
2013-01-20 12:17:00,64.3,50.6,30.16,SSE,157,2.0,5.0,61,0.00,,---,0.00,606.00,VWS V14.00,2013-01-20 18:17:00,
2013-01-20 12:21:00,64.6,50.0,30.16,SSE,167,3.0,8.0,59,0.00,,---,0.00,608.00,VWS V14.00,2013-01-20 18:21:00,
2013-01-20 12:25:00,64.8,50.6,30.16,SSE,152,4.0,8.0,60,0.00,,---,0.00,606.00,VWS V14.00,2013-01-20 18:25:00,
2013-01-20 12:29:00,65.3,49.7,30.16,SSE,163,6.0,9.0,57,0.00,,---,0.00,612.00,VWS V14.00,2013-01-20 18:29:00,
2013-01-20 12:30:00,65.3,49.7,30.14,SSE,156,7.0,9.0,57,0.00,,---,0.00,615.00,VWS V14.00,2013-01-20 18:30:00,
2013-01-20 12:33:00,65.3,50.6,30.14,SSE,156,5.0,7.0,59,0.00,,---,0.00,628.00,VWS V14.00,2013-01-20 18:33:00,
2013-01-20 12:37:00,65.3,49.7,30.14,South,173,4.0,7.0,57,0.00,,---,0.00,647.00,VWS V14.00,2013-01-20 18:37:00,
2013-01-20 12:41:00,65.2,49.6,30.14,SSE,162,9.0,11.0,57,0.00,,---,0.00,659.00,VWS V14.00,2013-01-20 18:41:00,
2013-01-20 12:45:00,65.5,49.4,30.13,South,191,1.0,11.0,56,0.00,,---,0.00,633.00,VWS V14.00,2013-01-20 18:45:00,
2013-01-20 12:49:00,65.9,49.8,30.13,South,169,6.0,11.0,56,0.00,,---,0.00,635.00,VWS V14.00,2013-01-20 18:49:00,
2013-01-20 12:53:00,65.9,49.3,30.13,South,174,4.0,13.0,55,0.00,,---,0.00,624.00,VWS V14.00,2013-01-20 18:53:00,
2013-01-20 12:57:00,65.2,49.1,30.13,SSE,153,10.0,13.0,56,0.00,,---,0.00,633.00,VWS V14.00,2013-01-20 18:57:00,
2013-01-20 13:00:00,65.4,49.3,30.12,SSE,153,6.0,13.0,56,0.00,,---,0.00,622.00,VWS V14.00,2013-01-20 19:00:00,
2013-01-20 13:01:00,65.5,49.4,30.12,SSE,157,2.0,6.0,56,0.00,,---,0.00,622.00,VWS V14.00,2013-01-20 19:01:00,
2013-01-20 13:05:00,66.3,49.7,30.12,SSE,166,3.0,6.0,55,0.00,,---,0.00,589.00,VWS V14.00,2013-01-20 19:05:00,
2013-01-20 13:09:00,66.6,48.4,30.12,South,169,6.0,8.0,52,0.00,,---,0.00,585.00,VWS V14.00,2013-01-20 19:09:00,
2013-01-20 13:13:00,67.2,47.4,30.12,SSW,200,8.0,9.0,49,0.00,,---,0.00,573.00,VWS V14.00,2013-01-20 19:13:00,
2013-01-20 13:17:00,67.1,47.3,30.11,South,169,9.0,13.0,49,0.00,,---,0.00,570.00,VWS V14.00,2013-01-20 19:17:00,
2013-01-20 13:21:00,66.2,46.5,30.11,SSE,148,11.0,13.0,49,0.00,,---,0.00,571.00,VWS V14.00,2013-01-20 19:21:00,
2013-01-20 13:25:00,66.5,47.3,30.11,South,191,11.0,13.0,50,0.00,,---,0.00,563.00,VWS V14.00,2013-01-20 19:25:00,
2013-01-20 13:29:00,66.4,47.2,30.10,South,186,3.0,13.0,50,0.00,,---,0.00,550.00,VWS V14.00,2013-01-20 19:29:00,
2013-01-20 13:30:00,66.5,48.3,30.10,SSE,151,6.0,13.0,52,0.00,,---,0.00,450.00,VWS V14.00,2013-01-20 19:30:00,
2013-01-20 13:33:00,66.7,47.0,30.10,SE,146,16.0,16.0,49,0.00,,---,0.00,552.00,VWS V14.00,2013-01-20 19:33:00,
2013-01-20 13:37:00,66.3,47.7,30.10,SSE,163,10.0,16.0,51,0.00,,---,0.00,548.00,VWS V14.00,2013-01-20 19:37:00,
2013-01-20 13:41:00,65.9,46.8,30.10,SSE,151,9.0,16.0,50,0.00,,---,0.00,540.00,VWS V14.00,2013-01-20 19:41:00,
2013-01-20 13:45:00,66.5,47.8,30.09,SSE,165,4.0,16.0,51,0.00,,---,0.00,531.00,VWS V14.00,2013-01-20 19:45:00,
2013-01-20 13:49:00,66.8,47.6,30.09,South,183,3.0,16.0,50,0.00,,---,0.00,527.00,VWS V14.00,2013-01-20 19:49:00,
2013-01-20 13:53:00,67.1,47.9,30.09,South,170,4.0,16.0,50,0.00,,---,0.00,520.00,VWS V14.00,2013-01-20 19:53:00,
2013-01-20 13:57:00,67.0,47.8,30.09,SSE,162,12.0,16.0,50,0.00,,---,0.00,512.00,VWS V14.00,2013-01-20 19:57:00,
2013-01-20 14:00:00,66.8,48.1,30.08,SSE,150,7.0,16.0,51,0.00,,---,0.00,508.00,VWS V14.00,2013-01-20 20:00:00,
2013-01-20 14:01:00,66.6,47.9,30.08,SSE,161,9.0,9.0,51,0.00,,---,0.00,508.00,VWS V14.00,2013-01-20 20:01:00,
2013-01-20 14:05:00,67.1,46.8,30.08,SE,146,10.0,13.0,48,0.00,,---,0.00,499.00,VWS V14.00,2013-01-20 20:05:00,
2013-01-20 14:09:00,67.4,47.6,30.08,SSW,194,4.0,13.0,49,0.00,,---,0.00,492.00,VWS V14.00,2013-01-20 20:09:00,
2013-01-20 14:13:00,67.3,47.0,30.08,South,182,2.0,13.0,48,0.00,,---,0.00,485.00,VWS V14.00,2013-01-20 20:13:00,
2013-01-20 14:17:00,68.6,47.0,30.08,South,189,7.0,13.0,46,0.00,,---,0.00,478.00,VWS V14.00,2013-01-20 20:17:00,
2013-01-20 14:21:00,67.5,46.0,30.08,South,177,5.0,15.0,46,0.00,,---,0.00,469.00,VWS V14.00,2013-01-20 20:21:00,
2013-01-20 14:25:00,67.3,46.4,30.08,South,180,4.0,15.0,47,0.00,,---,0.00,461.00,VWS V14.00,2013-01-20 20:25:00,
2013-01-20 14:29:00,67.1,46.2,30.08,SSE,166,5.0,15.0,47,0.00,,---,0.00,452.00,VWS V14.00,2013-01-20 20:29:00,
2013-01-20 14:30:00,67.2,46.9,30.08,SSW,198,9.0,15.0,48,0.00,,---,0.00,452.00,VWS V14.00,2013-01-20 20:30:00,
2013-01-20 14:34:00,67.5,47.1,30.08,South,181,5.0,12.0,48,0.00,,---,0.00,441.00,VWS V14.00,2013-01-20 20:34:00,
2013-01-20 14:38:00,68.0,45.9,30.08,South,177,6.0,12.0,45,0.00,,---,0.00,434.00,VWS V14.00,2013-01-20 20:38:00,
2013-01-20 14:42:00,68.3,46.2,30.08,SSW,197,5.0,12.0,45,0.00,,---,0.00,427.00,VWS V14.00,2013-01-20 20:42:00,
2013-01-20 14:46:00,67.9,47.0,30.08,South,178,5.0,12.0,47,0.00,,---,0.00,413.00,VWS V14.00,2013-01-20 20:46:00,
2013-01-20 14:50:00,68.2,46.7,30.08,SSW,199,4.0,12.0,46,0.00,,---,0.00,406.00,VWS V14.00,2013-01-20 20:50:00,
2013-01-20 14:54:00,68.3,46.7,30.08,South,184,3.0,12.0,46,0.00,,---,0.00,394.00,VWS V14.00,2013-01-20 20:54:00,
2013-01-20 14:58:00,67.9,47.0,30.08,South,169,9.0,12.0,47,0.00,,---,0.00,387.00,VWS V14.00,2013-01-20 20:58:00,
2013-01-20 15:00:00,67.5,46.6,30.07,South,188,12.0,12.0,47,0.00,,---,0.00,380.00,VWS V14.00,2013-01-20 21:00:00,
2013-01-20 15:02:00,67.5,46.0,30.07,South,169,6.0,12.0,46,0.00,,---,0.00,376.00,VWS V14.00,2013-01-20 21:02:00,
2013-01-20 15:06:00,67.7,46.8,30.07,SSE,165,4.0,12.0,47,0.00,,---,0.00,362.00,VWS V14.00,2013-01-20 21:06:00,
2013-01-20 15:10:00,68.1,46.6,30.07,SE,138,3.0,12.0,46,0.00,,---,0.00,355.00,VWS V14.00,2013-01-20 21:10:00,
2013-01-20 15:14:00,67.2,46.3,30.07,SSE,167,4.0,12.0,47,0.00,,---,0.00,343.00,VWS V14.00,2013-01-20 21:14:00,
2013-01-20 15:18:00,67.1,46.8,30.07,South,177,4.0,12.0,48,0.00,,---,0.00,329.00,VWS V14.00,2013-01-20 21:18:00,
2013-01-20 15:22:00,67.5,46.6,30.07,South,169,3.0,12.0,47,0.00,,---,0.00,316.00,VWS V14.00,2013-01-20 21:22:00,
2013-01-20 15:26:00,67.3,46.4,30.07,SSW,201,2.0,12.0,47,0.00,,---,0.00,306.00,VWS V14.00,2013-01-20 21:26:00,
2013-01-20 15:34:00,68.1,46.6,30.07,South,190,4.0,9.0,46,0.00,,---,0.00,287.00,VWS V14.00,2013-01-20 21:34:00,
2013-01-20 15:38:00,67.5,46.6,30.07,SSW,203,6.0,9.0,47,0.00,,---,0.00,269.00,VWS V14.00,2013-01-20 21:38:00,
2013-01-20 15:42:00,67.6,45.5,30.07,SSE,167,3.0,9.0,45,0.00,,---,0.00,257.00,VWS V14.00,2013-01-20 21:42:00,
2013-01-20 15:46:00,67.1,46.8,30.07,South,186,4.0,9.0,48,0.00,,---,0.00,248.00,VWS V14.00,2013-01-20 21:46:00,
2013-01-20 15:50:00,67.2,46.9,30.07,South,185,7.0,9.0,48,0.00,,---,0.00,236.00,VWS V14.00,2013-01-20 21:50:00,
2013-01-20 15:54:00,66.5,46.8,30.07,South,173,5.0,9.0,49,0.00,,---,0.00,223.00,VWS V14.00,2013-01-20 21:54:00,
2013-01-20 15:58:00,66.5,46.8,30.07,SSE,148,10.0,10.0,49,0.00,,---,0.00,211.00,VWS V14.00,2013-01-20 21:58:00,
2013-01-20 16:00:00,66.4,46.7,30.07,SSW,193,10.0,10.0,49,0.00,,---,0.00,204.00,VWS V14.00,2013-01-20 22:00:00,
2013-01-20 16:02:00,66.4,46.7,30.07,SSW,205,3.0,10.0,49,0.00,,---,0.00,200.00,VWS V14.00,2013-01-20 22:02:00,
2013-01-20 16:06:00,66.6,46.3,30.07,SSW,199,6.0,10.0,48,0.00,,---,0.00,162.00,VWS V14.00,2013-01-20 22:06:00,
2013-01-20 16:10:00,66.5,45.7,30.07,SSW,201,2.0,10.0,47,0.00,,---,0.00,127.00,VWS V14.00,2013-01-20 22:10:00,
2013-01-20 16:14:00,66.6,46.3,30.07,SSW,192,4.0,10.0,48,0.00,,---,0.00,77.00,VWS V14.00,2013-01-20 22:14:00,
2013-01-20 16:18:00,66.2,46.5,30.07,SSW,198,3.0,10.0,49,0.00,,---,0.00,102.00,VWS V14.00,2013-01-20 22:18:00,
2013-01-20 16:22:00,66.2,46.5,30.07,SSW,192,5.0,10.0,49,0.00,,---,0.00,114.00,VWS V14.00,2013-01-20 22:22:00,
2013-01-20 16:27:00,66.0,46.8,30.07,South,186,6.0,10.0,50,0.00,,---,0.00,91.00,VWS V14.00,2013-01-20 22:27:00,
2013-01-20 16:30:00,66.0,46.3,30.07,WSW,240,2.0,10.0,49,0.00,,---,0.00,77.00,VWS V14.00,2013-01-20 22:30:00,
2013-01-20 16:31:00,66.1,46.4,30.07,SSW,199,3.0,3.0,49,0.00,,---,0.00,77.00,VWS V14.00,2013-01-20 22:31:00,
2013-01-20 16:35:00,65.6,46.5,30.07,South,189,3.0,4.0,50,0.00,,---,0.00,76.00,VWS V14.00,2013-01-20 22:35:00,
2013-01-20 16:39:00,64.7,46.7,30.07,South,171,4.0,4.0,52,0.00,,---,0.00,65.00,VWS V14.00,2013-01-20 22:39:00,
2013-01-20 16:43:00,64.6,46.6,30.07,SSW,193,4.0,6.0,52,0.00,,---,0.00,37.00,VWS V14.00,2013-01-20 22:43:00,
2013-01-20 16:47:00,65.0,47.0,30.07,South,186,5.0,7.0,52,0.00,,---,0.00,28.00,VWS V14.00,2013-01-20 22:47:00,
2013-01-20 16:51:00,64.9,46.4,30.07,South,181,2.0,7.0,51,0.00,,---,0.00,25.00,VWS V14.00,2013-01-20 22:51:00,
2013-01-20 16:55:00,64.3,46.8,30.07,South,186,1.0,7.0,53,0.00,,---,0.00,19.00,VWS V14.00,2013-01-20 22:55:00,
2013-01-20 16:59:00,63.5,46.6,30.07,South,190,1.0,7.0,54,0.00,,---,0.00,16.00,VWS V14.00,2013-01-20 22:59:00,
2013-01-20 17:00:00,63.5,46.6,30.07,South,190,1.0,7.0,54,0.00,,---,0.00,16.00,VWS V14.00,2013-01-20 23:00:00,
2013-01-20 17:03:00,62.9,47.0,30.07,South,190,1.0,2.0,56,0.00,,---,0.00,14.00,VWS V14.00,2013-01-20 23:03:00,
2013-01-20 17:07:00,62.1,46.2,30.07,South,188,2.0,3.0,56,0.00,,---,0.00,12.00,VWS V14.00,2013-01-20 23:07:00,
2013-01-20 17:11:00,61.3,46.9,30.07,South,188,2.0,3.0,59,0.00,,---,0.00,11.00,VWS V14.00,2013-01-20 23:11:00,
2013-01-20 17:15:00,61.5,46.6,30.07,South,188,2.0,3.0,58,0.00,,---,0.00,9.00,VWS V14.00,2013-01-20 23:15:00,
2013-01-20 17:19:00,60.4,46.0,30.07,South,188,1.0,3.0,59,0.00,,---,0.00,5.00,VWS V14.00,2013-01-20 23:19:00,
2013-01-20 17:23:00,60.0,46.1,30.07,South,188,0.0,3.0,60,0.00,,---,0.00,0.00,VWS V14.00,2013-01-20 23:23:00,
2013-01-20 17:27:00,59.7,46.2,30.07,South,188,0.0,3.0,61,0.00,,---,0.00,0.00,VWS V14.00,2013-01-20 23:27:00,
2013-01-20 17:30:00,59.5,46.1,30.07,South,188,0.0,3.0,61,0.00,,---,0.00,0.00,VWS V14.00,2013-01-20 23:30:00,
2013-01-20 17:31:00,59.5,46.1,30.07,South,188,0.0,0.0,61,0.00,,---,0.00,0.00,VWS V14.00,2013-01-20 23:31:00,
2013-01-20 17:35:00,59.4,46.0,30.07,South,188,0.0,0.0,61,0.00,,---,0.00,0.00,VWS V14.00,2013-01-20 23:35:00,
2013-01-20 17:39:00,59.2,46.2,30.07,South,188,0.0,0.0,62,0.00,,---,0.00,0.00,VWS V14.00,2013-01-20 23:39:00,
2013-01-20 17:43:00,59.1,46.1,30.07,South,188,0.0,0.0,62,0.00,,---,0.00,0.00,VWS V14.00,2013-01-20 23:43:00,
2013-01-20 17:47:00,58.8,45.8,30.08,South,188,0.0,0.0,62,0.00,,---,0.00,0.00,VWS V14.00,2013-01-20 23:47:00,
2013-01-20 17:51:00,58.5,46.0,30.08,South,188,0.0,0.0,63,0.00,,---,0.00,0.00,VWS V14.00,2013-01-20 23:51:00,
2013-01-20 17:55:00,58.3,45.8,30.08,South,188,0.0,0.0,63,0.00,,---,0.00,0.00,VWS V14.00,2013-01-20 23:55:00,
2013-01-20 17:59:00,56.7,46.3,30.08,South,188,0.0,0.0,68,0.00,,---,0.00,0.00,VWS V14.00,2013-01-20 23:59:00,
2013-01-20 18:00:00,56.2,46.2,30.08,South,188,0.0,0.0,69,0.00,,---,0.00,0.00,VWS V14.00,2013-01-21 00:00:00,
2013-01-20 18:03:00,55.7,45.7,30.08,South,188,0.0,0.0,69,0.00,,---,0.00,0.00,VWS V14.00,2013-01-21 00:03:00,
2013-01-20 18:07:00,55.5,45.1,30.08,South,188,0.0,0.0,68,0.00,,---,0.00,0.00,VWS V14.00,2013-01-21 00:07:00,
2013-01-20 18:11:00,56.4,46.0,30.08,South,188,0.0,0.0,68,0.00,,---,0.00,0.00,VWS V14.00,2013-01-21 00:11:00,
2013-01-20 18:15:00,58.0,46.7,30.08,South,188,1.0,2.0,66,0.00,,---,0.00,0.00,VWS V14.00,2013-01-21 00:15:00,
2013-01-20 18:19:00,57.5,45.4,30.08,South,188,1.0,3.0,64,0.00,,---,0.00,0.00,VWS V14.00,2013-01-21 00:19:00,
2013-01-20 18:23:00,56.5,45.7,30.08,South,188,1.0,3.0,67,0.00,,---,0.00,0.00,VWS V14.00,2013-01-21 00:23:00,
2013-01-20 18:28:00,55.7,45.7,30.08,South,188,1.0,3.0,69,0.00,,---,0.00,0.00,VWS V14.00,2013-01-21 00:28:00,
2013-01-20 18:30:00,55.4,45.4,30.09,South,188,1.0,3.0,69,0.00,,---,0.00,0.00,VWS V14.00,2013-01-21 00:30:00,
2013-01-20 18:32:00,55.3,45.3,30.09,South,188,2.0,2.0,69,0.00,,---,0.00,0.00,VWS V14.00,2013-01-21 00:32:00,
2013-01-20 18:36:00,54.7,45.5,30.09,South,188,2.0,2.0,71,0.00,,---,0.00,0.00,VWS V14.00,2013-01-21 00:36:00,
2013-01-20 18:40:00,54.5,45.7,30.09,South,188,2.0,3.0,72,0.00,,---,0.00,0.00,VWS V14.00,2013-01-21 00:40:00,
2013-01-20 18:44:00,54.5,45.7,30.09,South,188,2.0,3.0,72,0.00,,---,0.00,0.00,VWS V14.00,2013-01-21 00:44:00,
2013-01-20 18:48:00,54.4,45.6,30.09,South,188,1.0,3.0,72,0.00,,---,0.00,0.00,VWS V14.00,2013-01-21 00:48:00,
2013-01-20 18:52:00,54.5,45.7,30.09,South,188,1.0,3.0,72,0.00,,---,0.00,0.00,VWS V14.00,2013-01-21 00:52:00,
2013-01-20 18:56:00,54.5,45.7,30.09,South,188,1.0,3.0,72,0.00,,---,0.00,0.00,VWS V14.00,2013-01-21 00:56:00,
2013-01-20 19:00:00,54.4,45.6,30.09,South,188,1.0,3.0,72,0.00,,---,0.00,0.00,VWS V14.00,2013-01-21 01:00:00,
2013-01-20 19:04:00,54.0,45.2,30.09,South,188,2.0,2.0,72,0.00,,---,0.00,0.00,VWS V14.00,2013-01-21 01:04:00,
2013-01-20 19:08:00,53.8,45.4,30.09,South,188,2.0,2.0,73,0.00,,---,0.00,0.00,VWS V14.00,2013-01-21 01:08:00,
2013-01-20 19:12:00,53.6,45.5,30.09,South,188,2.0,2.0,74,0.00,,---,0.00,0.00,VWS V14.00,2013-01-21 01:12:00,
2013-01-20 19:16:00,53.5,45.4,30.10,South,188,0.0,2.0,74,0.00,,---,0.00,0.00,VWS V14.00,2013-01-21 01:16:00,
2013-01-20 19:20:00,53.6,45.5,30.10,South,188,0.0,2.0,74,0.00,,---,0.00,0.00,VWS V14.00,2013-01-21 01:20:00,
2013-01-20 19:24:00,53.6,45.5,30.10,South,188,0.0,2.0,74,0.00,,---,0.00,0.00,VWS V14.00,2013-01-21 01:24:00,
2013-01-20 19:28:00,53.6,45.5,30.10,South,188,0.0,2.0,74,0.00,,---,0.00,0.00,VWS V14.00,2013-01-21 01:28:00,
2013-01-20 19:32:00,53.6,45.5,30.10,South,188,0.0,0.0,74,0.00,,---,0.00,0.00,VWS V14.00,2013-01-21 01:32:00,
2013-01-20 19:36:00,53.3,45.6,30.10,South,188,0.0,0.0,75,0.00,,---,0.00,0.00,VWS V14.00,2013-01-21 01:36:00,
2013-01-20 19:40:00,53.2,45.5,30.10,South,188,0.0,0.0,75,0.00,,---,0.00,0.00,VWS V14.00,2013-01-21 01:40:00,
2013-01-20 19:44:00,52.9,45.2,30.10,South,188,0.0,0.0,75,0.00,,---,0.00,0.00,VWS V14.00,2013-01-21 01:44:00,
2013-01-20 19:48:00,52.5,45.2,30.10,South,188,0.0,0.0,76,0.00,,---,0.00,0.00,VWS V14.00,2013-01-21 01:48:00,
2013-01-20 19:52:00,52.2,45.2,30.10,South,188,0.0,0.0,77,0.00,,---,0.00,0.00,VWS V14.00,2013-01-21 01:52:00,
2013-01-20 19:56:00,52.1,45.1,30.10,South,188,0.0,0.0,77,0.00,,---,0.00,0.00,VWS V14.00,2013-01-21 01:56:00,
2013-01-20 20:00:00,51.8,44.8,30.10,South,188,0.0,0.0,77,0.00,,---,0.00,0.00,VWS V14.00,2013-01-21 02:00:00,
2013-01-20 20:04:00,51.0,44.4,30.10,South,188,0.0,0.0,78,0.00,,---,0.00,0.00,VWS V14.00,2013-01-21 02:04:00,
2013-01-20 20:08:00,50.3,44.4,30.10,South,188,0.0,0.0,80,0.00,,---,0.00,0.00,VWS V14.00,2013-01-21 02:08:00,
2013-01-20 20:12:00,50.3,44.7,30.10,South,188,0.0,0.0,81,0.00,,---,0.00,0.00,VWS V14.00,2013-01-21 02:12:00,
2013-01-20 20:16:00,50.8,45.2,30.09,South,188,0.0,0.0,81,0.00,,---,0.00,0.00,VWS V14.00,2013-01-21 02:16:00,
2013-01-20 20:20:00,51.5,45.2,30.09,South,188,0.0,0.0,79,0.00,,---,0.00,0.00,VWS V14.00,2013-01-21 02:20:00,
2013-01-20 20:24:00,51.7,45.4,30.09,South,188,0.0,0.0,79,0.00,,---,0.00,0.00,VWS V14.00,2013-01-21 02:24:00,
2013-01-20 20:29:00,51.9,45.3,30.09,South,188,0.0,0.0,78,0.00,,---,0.00,0.00,VWS V14.00,2013-01-21 02:29:00,
2013-01-20 20:33:00,52.1,45.5,30.10,South,188,0.0,0.0,78,0.00,,---,0.00,0.00,VWS V14.00,2013-01-21 02:33:00,
2013-01-20 20:37:00,52.1,45.1,30.10,South,188,2.0,2.0,77,0.00,,---,0.00,0.00,VWS V14.00,2013-01-21 02:37:00,
2013-01-20 20:41:00,52.1,45.5,30.10,South,188,2.0,3.0,78,0.00,,---,0.00,0.00,VWS V14.00,2013-01-21 02:41:00,
2013-01-20 20:45:00,52.1,45.5,30.10,South,188,4.0,4.0,78,0.00,,---,0.00,0.00,VWS V14.00,2013-01-21 02:45:00,
2013-01-20 20:49:00,52.1,45.1,30.10,South,188,1.0,4.0,77,0.00,,---,0.00,0.00,VWS V14.00,2013-01-21 02:49:00,
2013-01-20 20:53:00,51.3,45.0,30.10,South,188,2.0,4.0,79,0.00,,---,0.00,0.00,VWS V14.00,2013-01-21 02:53:00,
2013-01-20 20:57:00,51.1,45.2,30.10,South,188,1.0,4.0,80,0.00,,---,0.00,0.00,VWS V14.00,2013-01-21 02:57:00,
2013-01-20 21:00:00,51.3,45.3,30.10,South,188,2.0,4.0,80,0.00,,---,0.00,0.00,VWS V14.00,2013-01-21 03:00:00,
2013-01-20 21:01:00,51.3,45.0,30.10,South,188,1.0,2.0,79,0.00,,---,0.00,0.00,VWS V14.00,2013-01-21 03:01:00,
2013-01-20 21:05:00,51.4,45.1,30.10,South,188,1.0,3.0,79,0.00,,---,0.00,0.00,VWS V14.00,2013-01-21 03:05:00,
2013-01-20 21:09:00,51.3,45.0,30.10,South,188,1.0,3.0,79,0.00,,---,0.00,0.00,VWS V14.00,2013-01-21 03:09:00,
2013-01-20 21:13:00,51.3,45.0,30.10,South,188,2.0,3.0,79,0.00,,---,0.00,0.00,VWS V14.00,2013-01-21 03:13:00,
2013-01-20 21:17:00,51.3,45.0,30.09,South,188,1.0,3.0,79,0.00,,---,0.00,0.00,VWS V14.00,2013-01-21 03:17:00,
2013-01-20 21:21:00,50.9,45.0,30.09,South,188,0.0,3.0,80,0.00,,---,0.00,0.00,VWS V14.00,2013-01-21 03:21:00,
2013-01-20 21:25:00,50.8,44.9,30.09,South,188,0.0,3.0,80,0.00,,---,0.00,0.00,VWS V14.00,2013-01-21 03:25:00,
2013-01-20 21:29:00,50.6,45.0,30.10,South,188,0.0,3.0,81,0.00,,---,0.00,0.00,VWS V14.00,2013-01-21 03:29:00,
2013-01-20 21:30:00,50.6,45.0,30.10,South,188,0.0,3.0,81,0.00,,---,0.00,0.00,VWS V14.00,2013-01-21 03:30:00,
2013-01-20 21:33:00,50.7,45.1,30.10,South,188,0.0,0.0,81,0.00,,---,0.00,0.00,VWS V14.00,2013-01-21 03:33:00,
2013-01-20 21:37:00,51.0,45.4,30.10,South,188,0.0,0.0,81,0.00,,---,0.00,0.00,VWS V14.00,2013-01-21 03:37:00,
2013-01-20 21:41:00,51.4,45.8,30.10,South,188,0.0,0.0,81,0.00,,---,0.00,0.00,VWS V14.00,2013-01-21 03:41:00,
2013-01-20 21:45:00,51.6,45.6,30.10,South,188,0.0,0.0,80,0.00,,---,0.00,0.00,VWS V14.00,2013-01-21 03:45:00,
2013-01-20 21:49:00,51.3,45.0,30.10,South,188,0.0,0.0,79,0.00,,---,0.00,0.00,VWS V14.00,2013-01-21 03:49:00,
2013-01-20 21:53:00,49.5,44.2,30.10,South,188,0.0,0.0,82,0.00,,---,0.00,0.00,VWS V14.00,2013-01-21 03:53:00,
2013-01-20 21:57:00,48.6,44.0,30.10,South,188,0.0,0.0,84,0.00,,---,0.00,0.00,VWS V14.00,2013-01-21 03:57:00,
2013-01-20 22:00:00,48.3,44.3,30.10,South,188,0.0,0.0,86,0.00,,---,0.00,0.00,VWS V14.00,2013-01-21 04:00:00,
2013-01-20 22:01:00,48.2,44.5,30.10,South,188,0.0,0.0,87,0.00,,---,0.00,0.00,VWS V14.00,2013-01-21 04:01:00,
2013-01-20 22:05:00,48.3,44.6,30.10,South,188,0.0,0.0,87,0.00,,---,0.00,0.00,VWS V14.00,2013-01-21 04:05:00,
2013-01-20 22:09:00,48.1,44.4,30.10,South,188,0.0,0.0,87,0.00,,---,0.00,0.00,VWS V14.00,2013-01-21 04:09:00,
2013-01-20 22:13:00,48.0,44.3,30.10,South,188,0.0,0.0,87,0.00,,---,0.00,0.00,VWS V14.00,2013-01-21 04:13:00,
2013-01-20 22:17:00,47.7,44.0,30.10,South,188,0.0,0.0,87,0.00,,---,0.00,0.00,VWS V14.00,2013-01-21 04:17:00,
2013-01-20 22:21:00,47.2,43.5,30.10,South,188,0.0,0.0,87,0.00,,---,0.00,0.00,VWS V14.00,2013-01-21 04:21:00,
2013-01-20 22:25:00,47.1,43.4,30.10,South,188,0.0,0.0,87,0.00,,---,0.00,0.00,VWS V14.00,2013-01-21 04:25:00,
2013-01-20 22:29:00,47.0,43.6,30.11,South,188,0.0,0.0,88,0.00,,---,0.00,0.00,VWS V14.00,2013-01-21 04:29:00,
2013-01-20 22:34:00,47.1,43.7,30.11,South,188,0.0,0.0,88,0.00,,---,0.00,0.00,VWS V14.00,2013-01-21 04:34:00,
2013-01-20 22:38:00,47.0,43.6,30.11,South,188,0.0,0.0,88,0.00,,---,0.00,0.00,VWS V14.00,2013-01-21 04:38:00,
2013-01-20 22:42:00,47.0,43.9,30.11,South,188,0.0,0.0,89,0.00,,---,0.00,0.00,VWS V14.00,2013-01-21 04:42:00,
2013-01-20 22:54:00,46.4,43.3,30.11,South,188,0.0,0.0,89,0.00,,---,0.00,0.00,VWS V14.00,2013-01-21 04:54:00,
2013-01-20 22:58:00,46.1,43.3,30.11,South,188,0.0,0.0,90,0.00,,---,0.00,0.00,VWS V14.00,2013-01-21 04:58:00,
2013-01-20 23:02:00,45.9,43.1,30.11,South,188,0.0,0.0,90,0.00,,---,0.00,0.00,VWS V14.00,2013-01-21 05:02:00,
2013-01-20 23:06:00,45.8,43.0,30.11,South,188,0.0,0.0,90,0.00,,---,0.00,0.00,VWS V14.00,2013-01-21 05:06:00,
2013-01-20 23:10:00,45.5,42.7,30.11,South,188,0.0,0.0,90,0.00,,---,0.00,0.00,VWS V14.00,2013-01-21 05:10:00,
2013-01-20 23:14:00,45.4,42.6,30.11,South,188,0.0,0.0,90,0.00,,---,0.00,0.00,VWS V14.00,2013-01-21 05:14:00,
2013-01-20 23:18:00,45.4,42.6,30.11,South,188,0.0,0.0,90,0.00,,---,0.00,0.00,VWS V14.00,2013-01-21 05:18:00,
2013-01-20 23:22:00,45.2,42.5,30.11,South,188,0.0,0.0,90,0.00,,---,0.00,0.00,VWS V14.00,2013-01-21 05:22:00,
2013-01-20 23:26:00,45.0,42.2,30.11,South,188,0.0,0.0,90,0.00,,---,0.00,0.00,VWS V14.00,2013-01-21 05:26:00,
2013-01-20 23:30:00,44.7,42.2,30.11,South,188,0.0,0.0,91,0.00,,---,0.00,0.00,VWS V14.00,2013-01-21 05:30:00,
2013-01-20 23:34:00,45.0,42.8,30.11,South,188,0.0,0.0,92,0.00,,---,0.00,0.00,VWS V14.00,2013-01-21 05:34:00,
2013-01-20 23:38:00,45.0,42.5,30.11,South,188,0.0,0.0,91,0.00,,---,0.00,0.00,VWS V14.00,2013-01-21 05:38:00,
2013-01-20 23:42:00,44.9,42.4,30.11,South,188,0.0,0.0,91,0.00,,---,0.00,0.00,VWS V14.00,2013-01-21 05:42:00,
2013-01-20 23:46:00,44.9,42.4,30.11,South,188,0.0,0.0,91,0.00,,---,0.00,0.00,VWS V14.00,2013-01-21 05:46:00,
2013-01-20 23:50:00,44.8,42.6,30.11,South,188,0.0,0.0,92,0.00,,---,0.00,0.00,VWS V14.00,2013-01-21 05:50:00,
2013-01-20 23:54:00,44.7,42.5,30.11,South,188,0.0,0.0,92,0.00,,---,0.00,0.00,VWS V14.00,2013-01-21 05:54:00,
2013-01-20 23:58:00,44.7,42.5,30.11,South,188,0.0,0.0,92,0.00,,---,0.00,0.00,VWS V14.00,2013-01-21 05:58:00,